createdAt,value
2023-05-04T00:00:12.452Z,100878.53
2023-05-04T00:06:18.220Z,100858.50
2023-05-04T00:12:15.440Z,100864.31
2023-05-04T00:15:01.297Z,100861.44
2023-05-04T00:21:19.004Z,100861.59
2023-05-04T00:24:05.549Z,100850.41
2023-05-04T00:26:51.761Z,100858.66
2023-05-04T00:29:38.180Z,100855.56
2023-05-04T00:35:57.607Z,100840.09
2023-05-04T00:38:52.202Z,100839.09
2023-05-04T00:41:45.638Z,100836.13
2023-05-04T00:44:41.204Z,100841.09
2023-05-04T00:47:33.736Z,100841.44
2023-05-04T00:50:27.106Z,100836.66
2023-05-04T00:53:19.791Z,100828.88
2023-05-04T00:56:16.097Z,100829.59
2023-05-04T00:59:08.437Z,100822.16
2023-05-04T01:02:09.575Z,100818.13
2023-05-04T01:05:02.822Z,100810.66
2023-05-04T01:11:28.561Z,100815.22
2023-05-04T01:14:49.907Z,100813.19
2023-05-04T01:17:43.006Z,100811.75
2023-05-04T01:20:36.196Z,100806.97
2023-05-04T01:23:30.025Z,100806.97
2023-05-04T01:26:25.672Z,100802.53
2023-05-04T01:29:20.975Z,100802.25
2023-05-04T01:32:16.072Z,100804.56
2023-05-04T01:35:09.176Z,100805.66
2023-05-04T01:38:01.635Z,100809.00
2023-05-04T01:40:56.820Z,100803.97
2023-05-04T01:47:10.684Z,100810.22
2023-05-04T01:53:50.525Z,100808.56
2023-05-04T01:56:45.226Z,100809.38
2023-05-04T02:02:48.448Z,100811.78
2023-05-04T02:05:44.359Z,100807.88
2023-05-04T02:08:36.495Z,100809.03
2023-05-04T02:11:28.889Z,100807.84
2023-05-04T02:14:22.673Z,100804.75
2023-05-04T02:17:15.858Z,100798.13
2023-05-04T02:20:10.125Z,100798.38
2023-05-04T02:23:02.616Z,100798.47
2023-05-04T02:25:55.951Z,100802.59
2023-05-04T02:28:49.756Z,100804.13
2023-05-04T02:31:44.075Z,100803.19
2023-05-04T02:34:36.971Z,100799.69
2023-05-04T02:37:29.599Z,100803.66
2023-05-04T02:40:22.862Z,100799.47
2023-05-04T02:43:15.775Z,100805.22
2023-05-04T02:46:08.878Z,100805.81
2023-05-04T02:49:03.005Z,100798.25
2023-05-04T02:51:55.679Z,100796.72
2023-05-04T02:58:01.130Z,100791.06
2023-05-04T03:00:54.559Z,100790.47
2023-05-04T03:03:47.570Z,100788.44
2023-05-04T03:06:42.264Z,100785.03
2023-05-04T03:09:34.413Z,100782.75
2023-05-04T03:12:26.724Z,100782.75
2023-05-04T03:15:19.295Z,100776.41
2023-05-04T03:18:11.596Z,100780.47
2023-05-04T03:21:04.610Z,100776.03
2023-05-04T03:23:59.492Z,100765.84
2023-05-04T03:26:53.546Z,100772.91
2023-05-04T03:29:46.767Z,100770.28
2023-05-04T03:32:40.584Z,100770.66
2023-05-04T03:35:33.671Z,100762.94
2023-05-04T03:38:28.528Z,100764.38
2023-05-04T03:41:26.303Z,100757.31
2023-05-04T03:44:18.649Z,100756.72
2023-05-04T03:47:11.451Z,100757.69
2023-05-04T03:50:03.998Z,100753.25
2023-05-04T03:52:56.870Z,100752.53
2023-05-04T03:55:51.557Z,100754.56
2023-05-04T04:01:35.427Z,100749.16
2023-05-04T04:07:41.318Z,100737.31
2023-05-04T04:13:49.932Z,100741.59
2023-05-04T04:16:44.246Z,100739.56
2023-05-04T04:19:36.252Z,100739.63
2023-05-04T04:25:39.397Z,100740.78
2023-05-04T04:31:49.309Z,100732.88
2023-05-04T04:34:41.599Z,100730.63
2023-05-04T04:37:34.442Z,100735.56
2023-05-04T04:43:47.925Z,100731.75
2023-05-04T04:46:40.583Z,100722.59
2023-05-04T04:49:34.890Z,100727.56
2023-05-04T04:52:27.654Z,100741.09
2023-05-04T04:55:20.804Z,100736.00
2023-05-04T04:58:13.604Z,100737.66
2023-05-04T05:01:07.949Z,100733.03
2023-05-04T05:04:00.675Z,100736.03
2023-05-04T05:10:09.458Z,100735.09
2023-05-04T05:16:14.145Z,100734.88
2023-05-04T05:19:06.703Z,100735.22
2023-05-04T05:25:08.119Z,100728.59
2023-05-04T05:28:00.674Z,100729.44
2023-05-04T05:30:53.967Z,100732.69
2023-05-04T05:34:02.616Z,100728.78
2023-05-04T05:36:53.667Z,100732.94
2023-05-04T05:39:46.779Z,100728.97
2023-05-04T05:45:53.469Z,100727.88
2023-05-04T05:52:02.057Z,100726.66
2023-05-04T05:58:10.932Z,100732.13
2023-05-04T06:04:17.310Z,100731.91
2023-05-04T06:07:09.766Z,100725.97
2023-05-04T06:10:02.737Z,100714.56
2023-05-04T06:12:55.678Z,100712.03
2023-05-04T06:15:52.935Z,100700.28
2023-05-04T06:18:46.128Z,100705.81
2023-05-04T06:21:39.850Z,100709.56
2023-05-04T06:24:32.772Z,100701.66
2023-05-04T06:27:28.696Z,100705.94
2023-05-04T06:30:24.185Z,100704.34
2023-05-04T06:33:17.183Z,100690.28
2023-05-04T06:36:10.314Z,100693.81
2023-05-04T06:39:04.159Z,100699.59
2023-05-04T06:41:57.018Z,100697.34
2023-05-04T06:44:52.153Z,100700.22
2023-05-04T06:47:44.481Z,100697.91
2023-05-04T06:53:48.632Z,100693.13
2023-05-04T07:00:10.563Z,100682.41
2023-05-04T07:03:03.809Z,100674.81
2023-05-04T07:09:09.053Z,100675.94
2023-05-04T07:12:01.471Z,100664.81
2023-05-04T07:14:53.617Z,100670.00
2023-05-04T07:17:48.433Z,100670.25
2023-05-04T07:20:42.900Z,100665.13
2023-05-04T07:23:35.703Z,100659.28
2023-05-04T07:26:34.047Z,100663.81
2023-05-04T07:29:26.554Z,100659.59
2023-05-04T07:32:19.744Z,100656.16
2023-05-04T07:35:14.637Z,100650.03
2023-05-04T07:38:08.127Z,100649.75
2023-05-04T07:41:00.505Z,100648.06
2023-05-04T07:43:52.700Z,100654.53
2023-05-04T07:46:45.586Z,100649.22
2023-05-04T07:49:38.785Z,100656.06
2023-05-04T07:52:33.538Z,100644.75
2023-05-04T07:55:28.812Z,100647.56
2023-05-04T08:01:57.894Z,100640.03
2023-05-04T08:05:08.614Z,100641.88
2023-05-04T08:07:58.796Z,100643.16
2023-05-04T08:14:38.528Z,100644.19
2023-05-04T08:17:46.757Z,100640.28
2023-05-04T08:20:38.604Z,100634.63
2023-05-04T08:23:34.048Z,100632.47
2023-05-04T08:26:26.874Z,100630.47
2023-05-04T08:29:31.534Z,100620.72
2023-05-04T08:32:24.682Z,100617.97
2023-05-04T08:35:18.078Z,100617.47
2023-05-04T08:38:10.346Z,100618.53
2023-05-04T08:41:04.887Z,100616.72
2023-05-04T08:43:59.447Z,100621.81
2023-05-04T08:47:16.937Z,100604.41
2023-05-04T08:50:10.593Z,100611.41
2023-05-04T08:53:19.800Z,100604.47
2023-05-04T08:56:14.501Z,100603.69
2023-05-04T09:02:28.920Z,100613.59
2023-05-04T09:05:22.049Z,100590.75
2023-05-04T09:08:15.259Z,100596.69
2023-05-04T09:11:07.529Z,100594.41
2023-05-04T09:14:00.966Z,100599.22
2023-05-04T09:20:14.911Z,100593.41
2023-05-04T09:26:12.528Z,100585.88
2023-05-04T09:29:16.138Z,100589.63
2023-05-04T09:32:12.225Z,100574.31
2023-05-04T09:35:06.278Z,100580.03
2023-05-04T09:37:58.848Z,100579.81
2023-05-04T09:40:52.045Z,100583.53
2023-05-04T09:43:48.140Z,100584.22
2023-05-04T09:46:41.911Z,100583.69
2023-05-04T09:49:36.188Z,100573.56
2023-05-04T09:52:27.678Z,100568.25
2023-05-04T09:55:21.577Z,100566.28
2023-05-04T09:58:15.869Z,100563.84
2023-05-04T10:01:09.225Z,100561.47
2023-05-04T10:04:03.913Z,100552.56
2023-05-04T10:06:57.289Z,100553.75
2023-05-04T10:09:50.177Z,100554.31
2023-05-04T10:12:59.886Z,100557.00
2023-05-04T10:16:01.070Z,100552.88
2023-05-04T10:22:18.537Z,100541.38
2023-05-04T10:25:23.700Z,100535.34
2023-05-04T10:28:28.531Z,100533.59
2023-05-04T10:34:49.801Z,100539.25
2023-05-04T10:37:37.905Z,100530.22
2023-05-04T10:40:37.501Z,100523.88
2023-05-04T10:46:35.984Z,100508.88
2023-05-04T10:49:22.840Z,100498.75
2023-05-04T10:52:10.652Z,100495.50
2023-05-04T10:58:04.807Z,100486.44
2023-05-04T11:00:51.513Z,100478.00
2023-05-04T11:07:08.602Z,100453.53
2023-05-04T11:10:38.927Z,100456.78
2023-05-04T11:13:35.074Z,100441.72
2023-05-04T11:16:28.480Z,100440.88
2023-05-04T11:22:56.416Z,100434.06
2023-05-04T11:25:48.391Z,100436.31
2023-05-04T11:28:42.987Z,100430.09
2023-05-04T11:31:35.451Z,100425.00
2023-05-04T11:34:27.704Z,100419.28
2023-05-04T11:37:34.748Z,100423.25
2023-05-04T11:40:27.992Z,100431.34
2023-05-04T11:43:21.041Z,100419.81
2023-05-04T11:46:10.258Z,100419.56
2023-05-04T11:49:04.044Z,100422.28
2023-05-04T11:52:06.861Z,100420.09
2023-05-04T11:54:59.704Z,100416.28
2023-05-04T12:01:27.139Z,100411.88
2023-05-04T12:04:19.629Z,100407.81
2023-05-04T12:07:12.744Z,100400.84
2023-05-04T12:10:06.328Z,100392.19
2023-05-04T12:13:23.922Z,100399.25
2023-05-04T12:16:18.000Z,100394.63
2023-05-04T12:19:13.350Z,100388.28
2023-05-04T12:25:22.455Z,100385.25
2023-05-04T12:28:14.808Z,100384.00
2023-05-04T12:31:07.838Z,100389.72
2023-05-04T12:34:00.601Z,100378.50
2023-05-04T12:36:55.932Z,100381.91
2023-05-04T12:39:48.834Z,100376.84
2023-05-04T12:42:42.240Z,100381.03
2023-05-04T12:45:34.590Z,100375.59
2023-05-04T12:48:21.943Z,100367.13
2023-05-04T12:51:14.731Z,100358.38
2023-05-04T12:54:09.159Z,100359.88
2023-05-04T12:57:02.227Z,100358.00
2023-05-04T12:59:54.808Z,100347.69
2023-05-04T13:02:47.948Z,100350.63
2023-05-04T13:05:40.986Z,100343.31
2023-05-04T13:11:47.428Z,100327.75
2023-05-04T13:14:40.153Z,100321.72
2023-05-04T13:17:33.772Z,100322.28
2023-05-04T13:23:37.516Z,100314.09
2023-05-04T13:26:29.692Z,100307.31
2023-05-04T13:29:24.379Z,100308.09
2023-05-04T13:32:34.347Z,100307.56
2023-05-04T13:35:24.240Z,100303.69
2023-05-04T13:38:16.792Z,100297.63
2023-05-04T13:41:09.522Z,100296.25
2023-05-04T13:44:01.659Z,100282.72
2023-05-04T13:46:56.305Z,100281.91
2023-05-04T13:49:49.026Z,100291.16
2023-05-04T13:52:41.573Z,100286.81
2023-05-04T13:55:33.832Z,100287.34
2023-05-04T13:58:27.241Z,100284.03
2023-05-04T14:01:19.583Z,100285.09
2023-05-04T14:04:13.109Z,100285.16
2023-05-04T14:07:05.668Z,100272.88
2023-05-04T14:09:59.678Z,100265.19
2023-05-04T14:12:52.991Z,100258.69
2023-05-04T14:15:45.860Z,100231.66
2023-05-04T14:21:47.531Z,100233.84
2023-05-04T14:24:40.692Z,100237.69
2023-05-04T14:27:35.170Z,100221.88
2023-05-04T14:30:41.803Z,100221.03
2023-05-04T14:33:34.575Z,100213.09
2023-05-04T14:36:26.769Z,100218.84
2023-05-04T14:39:21.237Z,100210.63
2023-05-04T14:42:13.663Z,100208.19
2023-05-04T14:45:07.952Z,100216.94
2023-05-04T14:51:22.781Z,100201.34
2023-05-04T14:57:33.534Z,100184.50
2023-05-04T15:00:25.980Z,100179.53
2023-05-04T15:03:19.127Z,100168.06
2023-05-04T15:06:12.263Z,100170.19
2023-05-04T15:12:21.391Z,100164.03
2023-05-04T15:15:15.425Z,100155.03
2023-05-04T15:21:36.560Z,100152.81
2023-05-04T15:24:28.498Z,100140.00
2023-05-04T15:27:20.772Z,100147.09
2023-05-04T15:30:16.392Z,100143.81
2023-05-04T15:33:10.442Z,100145.22
2023-05-04T15:36:06.676Z,100144.63
2023-05-04T15:38:59.775Z,100149.25
2023-05-04T15:41:52.740Z,100148.16
2023-05-04T15:44:45.715Z,100148.44
2023-05-04T15:47:40.766Z,100142.72
2023-05-04T15:50:33.640Z,100137.81
2023-05-04T15:53:26.946Z,100140.25
2023-05-04T15:56:20.407Z,100128.47
2023-05-04T15:59:12.955Z,100121.69
2023-05-04T16:02:07.964Z,100123.09
2023-05-04T16:05:37.990Z,100123.91
2023-05-04T16:08:32.132Z,100109.44
2023-05-04T16:14:53.903Z,100112.47
2023-05-04T16:17:46.931Z,100113.91
2023-05-04T16:20:39.974Z,100102.19
2023-05-04T16:23:33.810Z,100103.44
2023-05-04T16:26:26.774Z,100086.47
2023-05-04T16:29:19.703Z,100090.22
2023-05-04T16:32:12.747Z,100091.78
2023-05-04T16:35:06.991Z,100092.25
2023-05-04T16:38:00.328Z,100083.47
2023-05-04T16:40:53.997Z,100089.81
2023-05-04T16:43:48.784Z,100085.47
2023-05-04T16:49:54.076Z,100086.75
2023-05-04T16:52:46.917Z,100085.88
2023-05-04T16:55:40.668Z,100082.56
2023-05-04T16:58:35.311Z,100083.56
2023-05-04T17:01:31.868Z,100081.34
2023-05-04T17:04:27.308Z,100080.53
2023-05-04T17:07:19.767Z,100084.56
2023-05-04T17:10:12.969Z,100083.66
2023-05-04T17:13:07.015Z,100088.06
2023-05-04T17:16:01.085Z,100086.63
2023-05-04T17:18:53.943Z,100080.00
2023-05-04T17:21:46.832Z,100083.22
2023-05-04T17:24:40.017Z,100081.63
2023-05-04T17:27:32.361Z,100075.00
2023-05-04T17:30:24.827Z,100089.53
2023-05-04T17:33:19.033Z,100079.19
2023-05-04T17:36:12.437Z,100077.06
2023-05-04T17:39:04.987Z,100075.94
2023-05-04T17:41:58.235Z,100080.56
2023-05-04T17:44:50.950Z,100080.41
2023-05-04T17:51:01.401Z,100081.28
2023-05-04T17:53:53.821Z,100080.25
2023-05-04T17:56:46.686Z,100079.97
2023-05-04T18:03:00.871Z,100079.13
2023-05-04T18:05:53.789Z,100081.28
2023-05-04T18:08:48.077Z,100082.38
2023-05-04T18:11:40.935Z,100093.16
2023-05-04T18:14:34.001Z,100091.25
2023-05-04T18:17:28.568Z,100098.94
2023-05-04T18:20:20.939Z,100096.22
2023-05-04T18:23:13.782Z,100097.44
2023-05-04T18:26:07.982Z,100089.97
2023-05-04T18:29:07.913Z,100089.59
2023-05-04T18:32:10.644Z,100098.22
2023-05-04T18:35:04.033Z,100101.09
2023-05-04T18:37:56.781Z,100104.81
2023-05-04T18:40:53.380Z,100098.16
2023-05-04T18:43:47.276Z,100101.84
2023-05-04T18:46:40.242Z,100110.72
2023-05-04T18:49:32.703Z,100106.69
2023-05-04T18:52:25.890Z,100111.94
2023-05-04T18:55:18.804Z,100110.16
2023-05-04T18:58:12.255Z,100117.78
2023-05-04T19:01:06.402Z,100120.78
2023-05-04T19:07:11.171Z,100128.31
2023-05-04T19:10:03.933Z,100126.28
2023-05-04T19:12:57.517Z,100122.78
2023-05-04T19:15:49.932Z,100123.59
2023-05-04T19:18:45.512Z,100118.19
2023-05-04T19:21:37.729Z,100121.75
2023-05-04T19:27:50.734Z,100118.44
2023-05-04T19:30:43.656Z,100126.53
2023-05-04T19:33:47.295Z,100127.34
2023-05-04T19:36:42.136Z,100126.72
2023-05-04T19:39:34.773Z,100124.88
2023-05-04T19:42:28.226Z,100126.53
2023-05-04T19:45:20.801Z,100124.22
2023-05-04T19:48:16.216Z,100128.53
2023-05-04T19:51:08.910Z,100124.75
2023-05-04T19:54:03.294Z,100111.75
2023-05-04T20:00:13.122Z,100113.34
2023-05-04T20:03:06.020Z,100113.09
2023-05-04T20:05:59.107Z,100118.44
2023-05-04T20:08:58.245Z,100117.84
2023-05-04T20:11:52.235Z,100117.22
2023-05-04T20:14:44.998Z,100115.81
2023-05-04T20:17:37.967Z,100127.16
2023-05-04T20:20:30.660Z,100118.13
2023-05-04T20:23:23.030Z,100120.41
2023-05-04T20:29:29.995Z,100119.78
2023-05-04T20:32:22.707Z,100114.81
2023-05-04T20:38:45.003Z,100112.56
2023-05-04T20:42:15.114Z,100110.66
2023-05-04T20:45:09.983Z,100107.94
2023-05-04T20:48:20.102Z,100113.88
2023-05-04T20:51:14.340Z,100103.78
2023-05-04T20:54:07.956Z,100106.06
2023-05-04T20:56:56.414Z,100105.88
2023-05-04T20:59:49.015Z,100098.00
2023-05-04T21:02:43.474Z,100089.53
2023-05-04T21:05:39.069Z,100086.06
2023-05-04T21:08:32.122Z,100086.28
2023-05-04T21:11:24.944Z,100083.56
2023-05-04T21:17:49.709Z,100080.63
2023-05-04T21:21:20.066Z,100082.91
2023-05-04T21:24:13.884Z,100076.47
2023-05-04T21:27:22.983Z,100069.03
2023-05-04T21:30:13.804Z,100063.06
2023-05-04T21:33:08.113Z,100066.84
2023-05-04T21:36:11.000Z,100069.91
2023-05-04T21:39:02.461Z,100065.56
2023-05-04T21:41:54.636Z,100069.69
2023-05-04T21:44:47.037Z,100073.97
2023-05-04T21:47:39.753Z,100066.50
2023-05-04T21:50:34.167Z,100065.63
2023-05-04T21:53:26.946Z,100065.03
2023-05-04T21:56:19.980Z,100056.19
2023-05-04T21:59:12.707Z,100055.41
2023-05-04T22:02:06.485Z,100053.91
2023-05-04T22:04:58.979Z,100052.09
2023-05-04T22:07:53.090Z,100061.16
2023-05-04T22:10:59.869Z,100056.63
2023-05-04T22:13:53.000Z,100053.97
2023-05-04T22:16:46.378Z,100046.34
2023-05-04T22:19:38.593Z,100053.81
2023-05-04T22:22:31.234Z,100046.44
2023-05-04T22:25:25.598Z,100047.16
2023-05-04T22:28:18.072Z,100050.03
2023-05-04T22:31:10.799Z,100056.47
2023-05-04T22:34:03.635Z,100054.91
2023-05-04T22:36:56.086Z,100055.78
2023-05-04T22:39:48.665Z,100053.78
2023-05-04T22:46:03.010Z,100049.44
2023-05-04T22:52:20.791Z,100044.59
2023-05-04T22:58:20.702Z,100049.50
2023-05-04T23:04:26.455Z,100049.88
2023-05-04T23:07:18.969Z,100054.72
2023-05-04T23:10:11.725Z,100050.44
2023-05-04T23:13:04.663Z,100053.38
2023-05-04T23:15:56.860Z,100058.44
2023-05-04T23:18:49.860Z,100052.91
2023-05-04T23:21:44.279Z,100044.44
2023-05-04T23:24:37.213Z,100047.47
2023-05-04T23:27:26.769Z,100049.97
2023-05-04T23:30:20.117Z,100055.31
2023-05-04T23:33:45.058Z,100048.66
2023-05-04T23:36:31.412Z,100047.81
2023-05-04T23:42:37.435Z,100045.22
2023-05-04T23:45:23.259Z,100038.34
2023-05-04T23:48:09.483Z,100034.41
2023-05-04T23:50:57.383Z,100029.22
2023-05-04T23:53:43.392Z,100023.06
2023-05-04T23:56:29.777Z,100026.78
2023-05-04T23:59:17.283Z,100016.97
